createdAt,value
2017-11-14T00:00:26.700Z,62.10
2017-11-14T00:02:54.248Z,61.90
2017-11-14T00:05:22.552Z,63.20
2017-11-14T00:07:50.109Z,62.80
2017-11-14T00:10:17.638Z,62.40
2017-11-14T00:12:45.950Z,63.10
2017-11-14T00:15:13.475Z,62.80
2017-11-14T00:17:41.028Z,62.60
2017-11-14T00:20:09.334Z,63.20
2017-11-14T00:22:36.882Z,62.40
2017-11-14T00:25:04.803Z,62.30
2017-11-14T00:27:32.731Z,62.30
2017-11-14T00:30:00.268Z,62.10
2017-11-14T00:32:27.818Z,62.10
2017-11-14T00:34:56.126Z,63.00
2017-11-14T00:37:23.663Z,63.00
2017-11-14T00:39:51.184Z,62.90
2017-11-14T00:42:18.706Z,62.80
2017-11-14T00:44:46.308Z,62.30
2017-11-14T00:47:13.834Z,62.20
2017-11-14T00:49:41.376Z,62.20
2017-11-14T00:52:08.900Z,62.10
2017-11-14T00:54:36.852Z,62.40
2017-11-14T00:57:04.426Z,62.70
2017-11-14T00:59:31.988Z,62.60
2017-11-14T01:01:59.544Z,62.40
2017-11-14T01:04:27.863Z,62.50
2017-11-14T01:06:56.146Z,63.40
2017-11-14T01:09:23.707Z,63.00
2017-11-14T01:11:51.241Z,63.30
2017-11-14T01:14:18.791Z,64.10
2017-11-14T01:16:46.731Z,64.50
2017-11-14T01:19:14.270Z,64.10
2017-11-14T01:21:41.799Z,63.50
2017-11-14T01:24:09.353Z,63.60
2017-11-14T01:26:36.881Z,63.60
2017-11-14T01:29:04.434Z,63.70
2017-11-14T01:31:31.966Z,63.90
2017-11-14T01:33:59.920Z,63.70
2017-11-14T01:36:28.200Z,64.40
2017-11-14T01:38:55.738Z,64.00
2017-11-14T01:41:24.228Z,64.40
2017-11-14T01:43:52.818Z,64.20
2017-11-14T01:46:21.108Z,64.90
2017-11-14T01:48:48.630Z,64.40
2017-11-14T01:51:16.222Z,64.60
2017-11-14T01:53:44.512Z,65.10
2017-11-14T01:56:12.070Z,65.00
2017-11-14T01:58:39.599Z,65.00
2017-11-14T02:01:07.257Z,64.70
2017-11-14T02:03:34.787Z,64.60
2017-11-14T02:06:03.110Z,64.30
2017-11-14T02:08:31.387Z,64.80
2017-11-14T02:10:58.977Z,64.40
2017-11-14T02:13:26.503Z,65.00
2017-11-14T02:15:54.052Z,64.60
2017-11-14T02:18:22.808Z,64.60
2017-11-14T02:20:50.354Z,64.70
2017-11-14T02:23:17.962Z,64.90
2017-11-14T02:25:45.566Z,65.40
2017-11-14T02:28:13.088Z,65.00
2017-11-14T02:30:40.666Z,65.00
2017-11-14T02:33:08.962Z,65.60
2017-11-14T03:19:16.264Z,63.70
2017-11-14T03:21:43.824Z,63.80
2017-11-14T03:24:11.350Z,63.70
2017-11-14T03:26:38.873Z,64.20
2017-11-14T03:29:09.369Z,63.40
2017-11-14T03:31:38.393Z,63.10
2017-11-14T03:34:05.933Z,63.10
2017-11-14T03:36:33.450Z,63.60
2017-11-14T03:39:00.983Z,62.90
2017-11-14T03:41:29.276Z,63.60
2017-11-14T03:43:57.312Z,63.10
2017-11-14T03:46:24.840Z,63.50
2017-11-14T03:48:53.220Z,63.90
2017-11-14T03:51:20.766Z,63.80
2017-11-14T03:53:49.911Z,65.00
2017-11-14T03:56:17.663Z,64.20
2017-11-14T03:58:45.217Z,64.60
2017-11-14T04:01:13.136Z,65.40
2017-11-14T04:03:41.622Z,65.90
2017-11-14T04:06:09.143Z,65.20
2017-11-14T04:08:36.680Z,65.60
2017-11-14T04:11:04.208Z,64.80
2017-11-14T04:13:37.087Z,65.30
2017-11-14T04:16:04.616Z,64.70
2017-11-14T04:18:32.156Z,64.80
2017-11-14T04:20:59.769Z,65.40
2017-11-14T04:23:28.059Z,66.50
2017-11-14T04:25:55.598Z,67.00
2017-11-14T04:28:23.125Z,66.10
2017-11-14T04:30:50.670Z,65.70
2017-11-14T04:33:19.759Z,65.30
2017-11-14T04:35:47.695Z,65.20
2017-11-14T04:38:15.220Z,65.10
2017-11-14T04:40:44.578Z,64.90
2017-11-14T04:43:12.112Z,65.40
2017-11-14T04:45:39.676Z,64.90
2017-11-14T04:48:07.190Z,68.30
2017-11-14T04:50:34.736Z,65.60
2017-11-14T04:53:02.257Z,65.80
2017-11-14T04:55:29.796Z,65.60
2017-11-14T04:57:57.320Z,65.80
2017-11-14T05:00:24.881Z,66.30
2017-11-14T05:02:53.249Z,66.00
2017-11-14T05:05:20.799Z,65.60
2017-11-14T05:07:49.093Z,65.90
2017-11-14T05:10:17.396Z,65.00
2017-11-14T05:12:44.970Z,65.50
2017-11-14T05:15:12.839Z,65.40
2017-11-14T05:17:40.385Z,64.90
2017-11-14T05:20:07.913Z,65.40
2017-11-14T05:22:35.452Z,65.30
2017-11-14T05:25:02.973Z,65.30
2017-11-14T05:27:30.548Z,65.10
2017-11-14T05:29:58.069Z,64.80
2017-11-14T05:32:25.603Z,63.80
2017-11-14T05:34:53.891Z,63.70
2017-11-14T05:37:22.195Z,64.00
2017-11-14T05:39:49.710Z,64.00
2017-11-14T05:42:17.628Z,62.50
2017-11-14T05:44:45.171Z,61.90
2017-11-14T05:47:12.707Z,62.40
2017-11-14T05:49:41.027Z,62.90
2017-11-14T05:52:08.556Z,62.30
2017-11-14T05:54:36.168Z,61.90
2017-11-14T05:57:03.680Z,62.30
2017-11-14T05:59:31.223Z,62.90
2017-11-14T06:01:59.505Z,62.90
2017-11-14T06:04:27.816Z,63.80
2017-11-14T06:06:55.340Z,62.40
2017-11-14T06:09:22.891Z,63.10
2017-11-14T06:11:51.174Z,63.00
2017-11-14T06:14:18.727Z,63.10
2017-11-14T06:16:46.266Z,62.20
2017-11-14T06:19:13.807Z,62.70
2017-11-14T06:21:41.335Z,62.90
2017-11-14T06:24:08.876Z,62.80
2017-11-14T06:26:36.413Z,61.90
2017-11-14T06:29:04.706Z,63.00
2017-11-14T06:31:33.091Z,62.90
2017-11-14T06:34:01.731Z,63.40
2017-11-14T06:36:30.045Z,65.20
2017-11-14T06:38:57.567Z,64.40
2017-11-14T06:41:25.106Z,64.90
2017-11-14T06:43:52.626Z,63.60
2017-11-14T06:46:20.176Z,63.30
2017-11-14T06:48:47.705Z,63.90
2017-11-14T06:51:15.254Z,63.80
2017-11-14T06:53:42.778Z,63.20
2017-11-14T06:56:11.081Z,62.70
2017-11-14T06:58:38.620Z,62.60
2017-11-14T07:01:06.163Z,62.60
2017-11-14T07:03:33.674Z,63.10
2017-11-14T07:06:02.057Z,62.80
2017-11-14T07:08:29.595Z,62.70
2017-11-14T07:10:57.134Z,62.10
2017-11-14T07:13:24.654Z,62.30
2017-11-14T07:15:52.975Z,62.60
2017-11-14T07:18:21.255Z,63.30
2017-11-14T07:20:48.804Z,63.20
2017-11-14T07:23:16.323Z,61.50
2017-11-14T07:25:43.843Z,62.10
2017-11-14T07:28:11.497Z,61.50
2017-11-14T07:30:39.408Z,61.50
2017-11-14T07:33:06.938Z,61.50
2017-11-14T07:35:34.456Z,62.10
2017-11-14T07:38:01.995Z,62.10
2017-11-14T07:40:29.506Z,61.50
2017-11-14T07:42:57.052Z,61.20
2017-11-14T07:45:25.340Z,61.40
2017-11-14T07:47:52.892Z,61.30
2017-11-14T07:50:20.419Z,61.20
2017-11-14T07:52:47.976Z,60.80
2017-11-14T07:55:15.902Z,60.50
2017-11-14T07:57:44.211Z,76.70
2017-11-14T08:00:12.618Z,70.60
2017-11-14T08:02:41.782Z,59.20
2017-11-14T08:05:09.772Z,50.50
2017-11-14T08:07:37.741Z,51.50
2017-11-14T08:10:06.155Z,49.60
2017-11-14T08:12:34.455Z,48.80
2017-11-14T08:15:02.775Z,46.80
2017-11-14T08:17:31.064Z,43.20
2017-11-14T08:19:59.385Z,44.20
2017-11-14T08:22:27.691Z,45.80
2017-11-14T08:24:56.016Z,47.40
2017-11-14T08:27:25.840Z,50.50
2017-11-14T08:29:54.151Z,51.00
2017-11-14T08:32:22.543Z,52.70
2017-11-14T08:34:50.842Z,54.10
2017-11-14T08:37:19.128Z,54.70
2017-11-14T08:39:47.438Z,55.30
2017-11-14T08:42:15.886Z,54.80
2017-11-14T08:44:44.202Z,55.70
2017-11-14T08:47:12.483Z,56.60
2017-11-14T08:49:40.787Z,57.20
2017-11-14T08:52:09.067Z,56.70
2017-11-14T08:54:36.599Z,56.10
2017-11-14T08:57:04.616Z,56.90
2017-11-14T08:59:32.908Z,57.10
2017-11-14T09:02:01.212Z,57.70
2017-11-14T09:04:29.497Z,57.60
2017-11-14T09:06:57.049Z,57.30
2017-11-14T09:09:24.972Z,57.00
2017-11-14T09:11:53.280Z,56.90
2017-11-14T09:14:21.588Z,57.20
2017-11-14T09:16:49.907Z,57.40
2017-11-14T09:19:18.199Z,57.60
2017-11-14T09:21:46.592Z,57.50
2017-11-14T09:24:14.880Z,58.20
2017-11-14T09:26:43.932Z,59.20
2017-11-14T09:29:11.590Z,59.70
2017-11-14T09:31:39.946Z,59.80
2017-11-14T09:34:08.371Z,59.10
2017-11-14T09:36:36.688Z,58.60
2017-11-14T09:39:04.980Z,58.60
2017-11-14T09:41:33.283Z,58.30
2017-11-14T09:44:01.813Z,57.70
2017-11-14T09:46:30.130Z,57.00
2017-11-14T09:48:58.532Z,57.20
2017-11-14T09:51:26.850Z,57.30
2017-11-14T09:53:55.136Z,57.30
2017-11-14T09:56:23.602Z,57.70
2017-11-14T09:58:52.637Z,57.90
2017-11-14T10:01:20.217Z,57.40
2017-11-14T10:03:48.499Z,57.70
2017-11-14T10:06:16.808Z,57.00
2017-11-14T10:08:45.115Z,57.00
2017-11-14T10:11:12.686Z,57.10
2017-11-14T10:13:40.595Z,57.00
2017-11-14T10:16:09.411Z,56.50
2017-11-14T10:18:36.976Z,56.40
2017-11-14T10:21:04.495Z,56.70
2017-11-14T10:23:32.440Z,57.10
2017-11-14T10:26:00.736Z,56.30
2017-11-14T10:28:29.040Z,57.10
2017-11-14T10:30:57.325Z,56.50
2017-11-14T10:33:24.862Z,57.20
2017-11-14T10:35:52.780Z,57.40
2017-11-14T10:38:21.092Z,56.30
2017-11-14T10:40:49.786Z,56.40
2017-11-14T10:43:17.718Z,56.30
2017-11-14T10:45:46.196Z,56.70
2017-11-14T10:48:14.719Z,56.50
2017-11-14T10:50:43.019Z,55.40
2017-11-14T10:53:11.318Z,55.20
2017-11-14T10:55:39.616Z,55.30
2017-11-14T10:58:07.931Z,55.60
2017-11-14T11:00:39.150Z,55.80
2017-11-14T11:03:07.463Z,55.80
2017-11-14T11:05:35.743Z,56.00
2017-11-14T11:08:04.101Z,55.70
2017-11-14T11:10:32.391Z,55.60
2017-11-14T11:13:00.700Z,55.80
2017-11-14T11:15:29.047Z,55.90
2017-11-14T11:17:57.366Z,55.90
2017-11-14T11:20:26.442Z,56.40
2017-11-14T11:22:54.028Z,55.80
2017-11-14T11:25:22.322Z,56.00
2017-11-14T11:27:50.627Z,55.40
2017-11-14T11:30:18.539Z,55.80
2017-11-14T11:32:46.055Z,55.50
2017-11-14T11:35:14.366Z,56.00
2017-11-14T11:37:42.646Z,55.90
2017-11-14T11:40:11.196Z,55.80
2017-11-14T11:42:39.484Z,55.00
2017-11-14T11:45:07.812Z,55.50
2017-11-14T11:47:36.103Z,56.40
2017-11-14T11:50:04.417Z,56.30
2017-11-14T11:52:32.785Z,56.00
2017-11-14T11:55:01.110Z,55.80
2017-11-14T11:57:29.402Z,56.20
2017-11-14T11:59:56.935Z,56.90
2017-11-14T12:02:24.863Z,56.10
2017-11-14T12:04:53.172Z,56.20
2017-11-14T12:07:21.472Z,55.40
2017-11-14T12:09:49.772Z,55.70
2017-11-14T12:12:18.060Z,54.90
2017-11-14T12:14:46.374Z,54.70
2017-11-14T12:17:14.665Z,54.00
2017-11-14T12:19:42.943Z,54.00
2017-11-14T12:22:10.489Z,53.80
2017-11-14T12:24:38.776Z,53.60
2017-11-14T12:27:06.712Z,52.90
2017-11-14T12:29:35.016Z,53.80
2017-11-14T12:32:02.559Z,53.30
2017-11-14T12:34:30.562Z,54.60
2017-11-14T12:36:58.879Z,53.90
2017-11-14T12:39:27.163Z,54.00
2017-11-14T12:41:55.678Z,54.10
2017-11-14T12:44:23.967Z,54.10
2017-11-14T12:46:52.285Z,55.00
2017-11-14T12:49:20.612Z,54.10
2017-11-14T12:51:48.944Z,53.90
2017-11-14T12:54:18.023Z,54.00
2017-11-14T12:56:45.607Z,52.30
2017-11-14T12:59:13.891Z,52.60
2017-11-14T13:01:42.198Z,52.80
2017-11-14T13:04:10.480Z,52.90
2017-11-14T13:06:38.790Z,52.90
2017-11-14T13:09:07.096Z,52.60
2017-11-14T13:11:35.408Z,53.20
2017-11-14T13:14:03.715Z,52.30
2017-11-14T13:16:32.045Z,51.60
2017-11-14T13:19:00.323Z,51.50
2017-11-14T13:21:28.660Z,50.90
2017-11-14T13:23:56.946Z,50.70
2017-11-14T13:26:24.478Z,50.70
2017-11-14T13:28:52.397Z,51.00
2017-11-14T13:31:20.739Z,49.70
2017-11-14T13:33:49.036Z,49.10
2017-11-14T13:36:17.355Z,49.70
2017-11-14T13:38:45.657Z,48.80
2017-11-14T13:41:13.199Z,49.00
2017-11-14T13:43:44.455Z,48.20
2017-11-14T13:46:12.382Z,47.70
2017-11-14T13:48:40.763Z,48.20
2017-11-14T13:51:08.683Z,47.70
2017-11-14T13:53:36.992Z,49.30
2017-11-14T13:56:05.374Z,50.10
2017-11-14T13:58:33.687Z,50.70
2017-11-14T14:01:01.457Z,51.30
2017-11-14T14:03:29.011Z,51.40
2017-11-14T14:05:57.291Z,51.80
2017-11-14T14:08:25.862Z,52.30
2017-11-14T14:10:54.155Z,52.60
2017-11-14T14:13:22.466Z,53.00
2017-11-14T14:15:50.752Z,52.80
2017-11-14T14:18:19.058Z,52.10
2017-11-14T14:20:47.348Z,50.40
2017-11-14T14:23:15.650Z,48.00
2017-11-14T14:25:43.939Z,46.70
2017-11-14T14:28:12.258Z,44.30
2017-11-14T14:30:39.889Z,42.00
2017-11-14T14:33:07.841Z,40.10
2017-11-14T14:35:36.130Z,40.10
2017-11-14T14:38:04.460Z,39.00
2017-11-14T14:40:32.753Z,37.40
2017-11-14T14:43:01.049Z,37.00
2017-11-14T14:45:29.355Z,38.20
2017-11-14T14:47:57.663Z,37.00
2017-11-14T14:50:25.959Z,37.60
2017-11-14T14:52:54.259Z,37.50
2017-11-14T14:55:22.569Z,38.40
2017-11-14T14:57:50.860Z,38.70
2017-11-14T15:00:19.159Z,39.50
2017-11-14T15:02:47.447Z,40.40
2017-11-14T15:05:15.762Z,40.60
2017-11-14T15:07:45.076Z,42.20
2017-11-14T15:10:12.615Z,39.80
2017-11-14T15:12:40.915Z,41.40
2017-11-14T15:15:09.231Z,42.40
2017-11-14T15:17:37.555Z,42.10
2017-11-14T15:20:05.864Z,42.60
2017-11-14T15:22:34.151Z,43.10
2017-11-14T15:25:02.448Z,45.90
2017-11-14T15:27:30.738Z,46.10
2017-11-14T15:29:59.039Z,46.70
2017-11-14T15:32:27.323Z,47.50
2017-11-14T15:34:55.642Z,49.40
2017-11-14T15:37:23.948Z,50.10
2017-11-14T15:39:52.284Z,50.70
2017-11-14T15:42:20.569Z,51.40
2017-11-14T15:44:48.088Z,51.90
2017-11-14T15:47:16.022Z,52.30
2017-11-14T15:49:44.320Z,52.60
2017-11-14T15:52:12.620Z,53.00
2017-11-14T15:54:40.916Z,53.10
2017-11-14T15:57:08.460Z,53.30
2017-11-14T15:59:36.377Z,53.40
2017-11-14T16:02:04.686Z,53.70
2017-11-14T16:04:32.960Z,54.30
2017-11-14T16:07:00.896Z,54.20
2017-11-14T16:09:28.427Z,54.50
2017-11-14T16:11:56.738Z,54.70
2017-11-14T16:14:25.033Z,54.70
2017-11-14T16:16:53.577Z,55.10
2017-11-14T16:19:21.539Z,55.50
2017-11-14T16:21:49.863Z,56.00
2017-11-14T16:24:18.190Z,56.00
2017-11-14T16:26:46.654Z,56.30
2017-11-14T16:29:14.960Z,56.40
2017-11-14T16:31:44.016Z,59.70
2017-11-14T16:34:12.306Z,56.60
2017-11-14T16:36:41.968Z,56.70
2017-11-14T16:39:10.489Z,56.80
2017-11-14T16:41:38.803Z,56.90
2017-11-14T16:44:06.956Z,56.80
2017-11-14T16:46:34.543Z,57.10
2017-11-14T16:49:02.892Z,57.30
2017-11-14T16:51:31.952Z,57.30
2017-11-14T16:53:59.471Z,57.40
2017-11-14T16:56:27.795Z,57.40
2017-11-14T16:58:57.450Z,57.30
2017-11-14T17:01:24.987Z,57.40
2017-11-14T17:03:54.508Z,57.50
2017-11-14T17:06:24.000Z,57.60
2017-11-14T17:08:52.296Z,65.50
2017-11-14T17:11:20.683Z,55.60
2017-11-14T17:13:49.223Z,53.50
2017-11-14T17:16:18.383Z,53.20
2017-11-14T17:18:47.208Z,53.70
2017-11-14T17:21:15.519Z,54.30
2017-11-14T17:23:43.825Z,54.90
2017-11-14T17:26:12.147Z,55.70
2017-11-14T17:28:40.448Z,55.90
2017-11-14T17:31:08.773Z,56.30
2017-11-14T17:33:37.064Z,56.60
2017-11-14T17:36:05.414Z,56.80
2017-11-14T17:38:34.555Z,57.50
2017-11-14T17:41:02.086Z,57.30
2017-11-14T17:43:30.411Z,57.40
2017-11-14T17:45:58.726Z,57.50
2017-11-14T17:48:27.037Z,57.70
2017-11-14T17:50:55.346Z,57.80
2017-11-14T17:53:23.634Z,57.80
2017-11-14T17:55:52.883Z,58.80
2017-11-14T17:58:21.139Z,57.80
2017-11-14T18:00:49.612Z,58.00
2017-11-14T18:03:17.935Z,58.70
2017-11-14T18:05:46.783Z,58.30
2017-11-14T18:08:15.116Z,58.50
2017-11-14T18:10:43.420Z,58.60
2017-11-14T18:13:11.792Z,58.60
2017-11-14T18:15:40.896Z,58.60
2017-11-14T18:18:08.890Z,58.50
2017-11-14T18:20:36.827Z,58.70
2017-11-14T18:23:05.174Z,58.80
2017-11-14T18:25:34.013Z,58.80
2017-11-14T18:28:01.950Z,58.80
2017-11-14T18:30:30.243Z,58.70
2017-11-14T18:32:58.573Z,59.00
2017-11-14T18:35:26.876Z,59.00
2017-11-14T18:37:55.194Z,59.00
2017-11-14T18:40:23.484Z,59.00
2017-11-14T18:42:51.787Z,58.70
2017-11-14T18:45:20.111Z,58.70
2017-11-14T18:47:48.402Z,58.80
2017-11-14T18:50:16.720Z,58.90
2017-11-14T18:52:45.019Z,58.90
2017-11-14T18:55:13.324Z,59.00
2017-11-14T18:57:41.819Z,58.80
2017-11-14T19:00:10.944Z,59.10
2017-11-14T19:02:38.468Z,59.10
2017-11-14T19:05:06.990Z,59.00
2017-11-14T19:07:34.917Z,59.00
2017-11-14T19:10:02.475Z,58.90
2017-11-14T19:12:30.489Z,59.20
2017-11-14T19:14:58.797Z,59.10
2017-11-14T19:17:27.124Z,59.30
2017-11-14T19:19:57.090Z,59.30
2017-11-14T19:22:25.011Z,59.50
2017-11-14T19:24:53.331Z,59.50
2017-11-14T19:27:22.734Z,59.20
2017-11-14T19:29:51.073Z,59.80
2017-11-14T19:32:18.606Z,59.20
2017-11-14T19:34:46.636Z,59.10
2017-11-14T19:37:14.958Z,59.00
2017-11-14T19:39:44.929Z,59.20
2017-11-14T19:42:13.025Z,59.30
2017-11-14T19:44:42.850Z,59.30
2017-11-14T19:47:11.178Z,59.20
2017-11-14T19:49:39.466Z,59.30
2017-11-14T19:52:07.774Z,59.40
2017-11-14T19:54:38.244Z,59.30
2017-11-14T19:57:05.791Z,59.20
2017-11-14T19:59:34.122Z,59.30
2017-11-14T20:02:04.186Z,59.40
2017-11-14T20:04:33.408Z,59.90
2017-11-14T20:07:01.965Z,59.50
2017-11-14T20:09:30.328Z,59.30
2017-11-14T20:11:58.639Z,59.30
2017-11-14T20:14:27.181Z,59.20
2017-11-14T20:16:55.133Z,59.20
2017-11-14T20:19:23.430Z,59.50
2017-11-14T20:21:51.833Z,59.40
2017-11-14T20:24:20.123Z,59.30
2017-11-14T20:26:48.435Z,59.30
2017-11-14T20:29:16.729Z,59.50
2017-11-14T20:31:45.212Z,59.70
2017-11-14T20:34:14.755Z,59.70
2017-11-14T20:36:43.799Z,59.70
2017-11-14T20:39:11.394Z,60.00
2017-11-14T20:41:39.782Z,59.90
2017-11-14T20:44:08.208Z,59.80
2017-11-14T20:46:36.507Z,59.70
2017-11-14T20:49:05.503Z,59.60
2017-11-14T20:51:33.795Z,59.60
2017-11-14T20:54:01.349Z,60.00
2017-11-14T20:56:29.660Z,59.90
2017-11-14T20:58:58.813Z,59.80
2017-11-14T21:01:27.114Z,60.20
2017-11-14T21:03:54.664Z,59.70
2017-11-14T21:06:22.966Z,59.60
2017-11-14T21:08:52.209Z,59.40
2017-11-14T21:11:19.742Z,59.50
2017-11-14T21:13:48.061Z,59.70
2017-11-14T21:16:16.807Z,59.70
2017-11-14T21:18:45.186Z,59.70
2017-11-14T21:21:13.664Z,59.50
2017-11-14T21:23:41.830Z,59.50
2017-11-14T21:26:09.888Z,59.50
2017-11-14T21:28:37.882Z,59.60
2017-11-14T21:31:06.205Z,59.60
2017-11-14T21:33:34.546Z,59.70
2017-11-14T21:36:03.224Z,59.90
2017-11-14T21:38:31.167Z,59.90
2017-11-14T21:40:58.690Z,60.00
2017-11-14T21:43:27.290Z,59.80
2017-11-14T21:45:56.271Z,60.00
2017-11-14T21:48:24.610Z,59.30
2017-11-14T21:50:52.987Z,59.70
2017-11-14T21:53:21.278Z,59.70
2017-11-14T21:55:49.592Z,59.70
2017-11-14T21:58:17.894Z,59.80
2017-11-14T22:00:46.210Z,60.00
2017-11-14T22:03:14.508Z,59.90
2017-11-14T22:05:42.059Z,59.70
2017-11-14T22:08:10.492Z,59.90
2017-11-14T22:10:38.453Z,60.00
2017-11-14T22:13:06.748Z,59.90
2017-11-14T22:15:35.068Z,59.70
2017-11-14T22:18:04.092Z,59.60
2017-11-14T22:20:31.643Z,59.70
2017-11-14T22:22:59.944Z,60.10
2017-11-14T22:25:28.259Z,60.30
2017-11-14T22:27:56.556Z,60.10
2017-11-14T22:30:24.873Z,60.00
2017-11-14T22:32:53.167Z,60.40
2017-11-14T22:35:20.743Z,59.90
2017-11-14T22:37:48.670Z,59.90
2017-11-14T22:40:16.986Z,59.70
2017-11-14T22:42:45.289Z,59.70
2017-11-14T22:45:29.438Z,59.60
2017-11-14T22:47:58.078Z,59.50
2017-11-14T22:50:26.384Z,60.10
2017-11-14T22:52:55.145Z,59.80
2017-11-14T22:55:23.460Z,60.00
2017-11-14T22:57:51.790Z,60.10
2017-11-14T23:00:26.002Z,60.30
2017-11-14T23:02:54.254Z,60.70
2017-11-14T23:05:22.548Z,60.70
2017-11-14T23:07:50.884Z,60.20
2017-11-14T23:12:48.286Z,60.60
2017-11-14T23:15:15.819Z,60.20
2017-11-14T23:17:44.156Z,59.90
2017-11-14T23:20:12.450Z,60.00
2017-11-14T23:22:40.784Z,60.00
2017-11-14T23:25:09.118Z,60.00
2017-11-14T23:27:37.482Z,60.20
2017-11-14T23:30:06.211Z,60.30
2017-11-14T23:32:34.169Z,60.40
2017-11-14T23:35:02.464Z,60.60
2017-11-14T23:37:30.785Z,60.90
2017-11-14T23:39:59.087Z,61.00
2017-11-14T23:42:27.418Z,61.30
2017-11-14T23:44:56.471Z,62.20
2017-11-14T23:47:24.223Z,61.70
2017-11-14T23:49:53.275Z,61.60
2017-11-14T23:52:20.806Z,61.60
2017-11-14T23:54:48.963Z,61.80
2017-11-14T23:57:17.267Z,62.30
2017-11-14T23:59:45.644Z,62.60
